CFP2 weather

Fox Point Seaplane Base
Dwight, Ontario, Canada

Public forecast

Using degrees Celsius for public forecast. Weather courtesy of forecast.io.

Closest aviation weather report (METAR) to Fox Point Seaplane Base

Closest report is Muskoka Airport, 21.8 nm (40.3 km) SW. Retrieved 2019/11/20 08:42 UTC (0 seconds ago):

CYQA 200842Z AUTO 00000KT 1/2SM FZFG VV001 M00/M00 A2996 RMK SLP158

Closest aviation forecast (TAF) to Fox Point Seaplane Base

Forecast is more than 12 hours old.

Closest forecast is Muskoka Airport, 21.8 nm (40.3 km) SW. Retrieved 2019/11/19 20:00 UTC (12 hours ago):

TAF CYQA 191938Z 1920/2003 VRB03KT P6SM BKN008 TEMPO 1920/1924 BKN025 FM200000 VRB03KT P6SM SCT007 BKN025 TEMPO 2000/2003 3SM BR BKN007 OVC025 PROB30 2000/2003 11/2SM BR OVC006 RMK FCST BASED ON AUTO OBS NXT FCST WILL BE ISSUED AT 201245Z